sensor_id;sensor_type;location;lat;lon;timestamp;P1;durP1;ratioP1;P2;durP2;ratioP2
22778;SDS011;11556;51.194;3.800;2022-10-30T00:01:24;22.45;;;6.75;;
22778;SDS011;11556;51.194;3.800;2022-10-30T00:03:50;17.02;;;6.32;;
22778;SDS011;11556;51.194;3.800;2022-10-30T00:06:15;24.58;;;6.80;;
22778;SDS011;11556;51.194;3.800;2022-10-30T00:08:41;22.90;;;6.55;;
22778;SDS011;11556;51.194;3.800;2022-10-30T00:11:07;15.95;;;6.68;;
22778;SDS011;11556;51.194;3.800;2022-10-30T00:13:35;26.17;;;7.63;;
22778;SDS011;11556;51.194;3.800;2022-10-30T00:16:02;27.20;;;7.18;;
22778;SDS011;11556;51.194;3.800;2022-10-30T00:18:30;20.63;;;6.78;;
22778;SDS011;11556;51.194;3.800;2022-10-30T00:20:56;16.17;;;6.38;;
22778;SDS011;11556;51.194;3.800;2022-10-30T00:23:22;20.63;;;6.85;;
22778;SDS011;11556;51.194;3.800;2022-10-30T00:25:47;26.55;;;7.20;;
22778;SDS011;11556;51.194;3.800;2022-10-30T00:28:13;16.05;;;6.45;;
22778;SDS011;11556;51.194;3.800;2022-10-30T00:30:38;21.33;;;6.90;;
22778;SDS011;11556;51.194;3.800;2022-10-30T00:33:04;19.13;;;6.85;;
22778;SDS011;11556;51.194;3.800;2022-10-30T00:35:30;23.25;;;7.00;;
22778;SDS011;11556;51.194;3.800;2022-10-30T00:37:56;16.45;;;6.38;;
22778;SDS011;11556;51.194;3.800;2022-10-30T00:40:22;17.67;;;6.50;;
22778;SDS011;11556;51.194;3.800;2022-10-30T00:42:48;14.45;;;6.90;;
22778;SDS011;11556;51.194;3.800;2022-10-30T00:45:14;20.80;;;6.70;;
22778;SDS011;11556;51.194;3.800;2022-10-30T00:47:49;27.10;;;7.85;;
22778;SDS011;11556;51.194;3.800;2022-10-30T00:50:23;22.02;;;7.10;;
22778;SDS011;11556;51.194;3.800;2022-10-30T00:53:11;20.48;;;7.10;;
22778;SDS011;11556;51.194;3.800;2022-10-30T00:55:43;21.45;;;7.50;;
22778;SDS011;11556;51.194;3.800;2022-10-30T00:58:19;23.63;;;7.68;;
22778;SDS011;11556;51.194;3.800;2022-10-30T01:00:49;23.25;;;7.95;;
22778;SDS011;11556;51.194;3.800;2022-10-30T01:03:18;22.58;;;8.82;;
22778;SDS011;11556;51.194;3.800;2022-10-30T01:05:46;28.15;;;8.57;;
22778;SDS011;11556;51.194;3.800;2022-10-30T01:08:15;26.10;;;8.27;;
22778;SDS011;11556;51.194;3.800;2022-10-30T01:10:41;26.90;;;8.23;;
22778;SDS011;11556;51.194;3.800;2022-10-30T01:13:07;22.90;;;8.73;;
22778;SDS011;11556;51.194;3.800;2022-10-30T01:15:38;16.77;;;7.72;;
22778;SDS011;11556;51.194;3.800;2022-10-30T01:18:17;21.42;;;8.40;;
22778;SDS011;11556;51.194;3.800;2022-10-30T01:26:44;24.55;;;9.07;;
22778;SDS011;11556;51.194;3.800;2022-10-30T01:32:25;21.80;;;9.77;;
22778;SDS011;11556;51.194;3.800;2022-10-30T01:37:38;23.73;;;10.20;;
22778;SDS011;11556;51.194;3.800;2022-10-30T01:40:12;20.30;;;10.27;;
22778;SDS011;11556;51.194;3.800;2022-10-30T01:42:44;30.92;;;10.52;;
22778;SDS011;11556;51.194;3.800;2022-10-30T01:45:18;25.10;;;10.30;;
22778;SDS011;11556;51.194;3.800;2022-10-30T01:51:06;29.83;;;10.55;;
22778;SDS011;11556;51.194;3.800;2022-10-30T02:01:56;20.85;;;9.60;;
22778;SDS011;11556;51.194;3.800;2022-10-30T02:04:22;24.27;;;9.93;;
22778;SDS011;11556;51.194;3.800;2022-10-30T02:06:48;25.13;;;9.85;;
22778;SDS011;11556;51.194;3.800;2022-10-30T02:09:15;23.95;;;9.77;;
22778;SDS011;11556;51.194;3.800;2022-10-30T02:11:41;23.77;;;10.25;;
22778;SDS011;11556;51.194;3.800;2022-10-30T02:14:09;26.77;;;11.23;;
22778;SDS011;11556;51.194;3.800;2022-10-30T02:16:38;30.30;;;11.77;;
22778;SDS011;11556;51.194;3.800;2022-10-30T02:19:09;27.30;;;12.65;;
22778;SDS011;11556;51.194;3.800;2022-10-30T02:21:35;32.67;;;11.90;;
22778;SDS011;11556;51.194;3.800;2022-10-30T02:24:01;21.55;;;10.48;;
22778;SDS011;11556;51.194;3.800;2022-10-30T02:26:26;23.17;;;11.38;;
22778;SDS011;11556;51.194;3.800;2022-10-30T02:28:52;24.05;;;11.50;;
22778;SDS011;11556;51.194;3.800;2022-10-30T02:31:17;22.05;;;10.40;;
22778;SDS011;11556;51.194;3.800;2022-10-30T02:33:44;27.65;;;11.32;;
22778;SDS011;11556;51.194;3.800;2022-10-30T02:36:10;24.98;;;11.10;;
22778;SDS011;11556;51.194;3.800;2022-10-30T02:38:39;24.02;;;11.65;;
22778;SDS011;11556;51.194;3.800;2022-10-30T02:41:05;22.50;;;11.20;;
22778;SDS011;11556;51.194;3.800;2022-10-30T02:43:31;26.55;;;11.00;;
22778;SDS011;11556;51.194;3.800;2022-10-30T02:45:57;22.83;;;10.90;;
22778;SDS011;11556;51.194;3.800;2022-10-30T02:48:22;25.38;;;10.10;;
22778;SDS011;11556;51.194;3.800;2022-10-30T02:50:48;31.27;;;10.90;;
22778;SDS011;11556;51.194;3.800;2022-10-30T02:53:13;21.45;;;10.82;;
22778;SDS011;11556;51.194;3.800;2022-10-30T02:55:39;30.77;;;11.23;;
22778;SDS011;11556;51.194;3.800;2022-10-30T02:58:04;25.48;;;12.10;;
22778;SDS011;11556;51.194;3.800;2022-10-30T03:00:30;27.98;;;13.73;;
22778;SDS011;11556;51.194;3.800;2022-10-30T03:02:56;49.22;;;17.02;;
22778;SDS011;11556;51.194;3.800;2022-10-30T03:05:22;45.53;;;17.52;;
22778;SDS011;11556;51.194;3.800;2022-10-30T03:07:48;34.85;;;15.90;;
22778;SDS011;11556;51.194;3.800;2022-10-30T03:10:15;43.15;;;15.27;;
22778;SDS011;11556;51.194;3.800;2022-10-30T03:12:41;41.60;;;15.93;;
22778;SDS011;11556;51.194;3.800;2022-10-30T03:15:07;34.75;;;14.65;;
22778;SDS011;11556;51.194;3.800;2022-10-30T03:17:33;37.72;;;15.40;;
22778;SDS011;11556;51.194;3.800;2022-10-30T03:19:59;41.88;;;15.45;;
22778;SDS011;11556;51.194;3.800;2022-10-30T03:22:24;40.13;;;14.85;;
22778;SDS011;11556;51.194;3.800;2022-10-30T03:24:50;35.60;;;14.57;;
22778;SDS011;11556;51.194;3.800;2022-10-30T03:27:16;34.35;;;13.57;;
22778;SDS011;11556;51.194;3.800;2022-10-30T03:29:41;31.20;;;13.73;;
22778;SDS011;11556;51.194;3.800;2022-10-30T03:32:07;42.58;;;14.20;;
22778;SDS011;11556;51.194;3.800;2022-10-30T03:34:36;39.08;;;14.65;;
22778;SDS011;11556;51.194;3.800;2022-10-30T03:37:02;38.17;;;15.00;;
22778;SDS011;11556;51.194;3.800;2022-10-30T03:39:28;36.00;;;14.75;;
22778;SDS011;11556;51.194;3.800;2022-10-30T03:41:54;38.00;;;15.20;;
22778;SDS011;11556;51.194;3.800;2022-10-30T03:44:19;35.17;;;14.75;;
22778;SDS011;11556;51.194;3.800;2022-10-30T03:46:45;44.90;;;15.88;;
22778;SDS011;11556;51.194;3.800;2022-10-30T03:49:10;43.10;;;16.80;;
22778;SDS011;11556;51.194;3.800;2022-10-30T03:51:36;41.85;;;16.10;;
22778;SDS011;11556;51.194;3.800;2022-10-30T03:54:02;39.20;;;16.65;;
22778;SDS011;11556;51.194;3.800;2022-10-30T03:56:27;46.78;;;16.98;;
22778;SDS011;11556;51.194;3.800;2022-10-30T03:58:53;39.58;;;16.52;;
22778;SDS011;11556;51.194;3.800;2022-10-30T04:01:18;37.55;;;15.55;;
22778;SDS011;11556;51.194;3.800;2022-10-30T04:03:44;43.60;;;16.77;;
22778;SDS011;11556;51.194;3.800;2022-10-30T04:06:10;34.53;;;15.63;;
22778;SDS011;11556;51.194;3.800;2022-10-30T04:08:35;33.65;;;15.15;;
22778;SDS011;11556;51.194;3.800;2022-10-30T04:11:01;41.45;;;15.95;;
22778;SDS011;11556;51.194;3.800;2022-10-30T04:13:26;40.53;;;15.55;;
22778;SDS011;11556;51.194;3.800;2022-10-30T04:15:52;34.63;;;15.40;;
22778;SDS011;11556;51.194;3.800;2022-10-30T04:18:18;33.72;;;13.57;;
22778;SDS011;11556;51.194;3.800;2022-10-30T04:20:44;33.28;;;14.27;;
22778;SDS011;11556;51.194;3.800;2022-10-30T04:23:12;31.02;;;12.55;;
22778;SDS011;11556;51.194;3.800;2022-10-30T04:25:39;29.20;;;13.18;;
22778;SDS011;11556;51.194;3.800;2022-10-30T04:28:05;27.35;;;12.65;;
22778;SDS011;11556;51.194;3.800;2022-10-30T04:30:30;27.88;;;12.40;;
22778;SDS011;11556;51.194;3.800;2022-10-30T04:33:01;31.95;;;12.52;;
22778;SDS011;11556;51.194;3.800;2022-10-30T04:35:29;26.55;;;12.68;;
22778;SDS011;11556;51.194;3.800;2022-10-30T04:37:57;30.75;;;12.98;;
22778;SDS011;11556;51.194;3.800;2022-10-30T04:40:25;27.52;;;12.38;;
22778;SDS011;11556;51.194;3.800;2022-10-30T04:42:55;31.55;;;13.27;;
22778;SDS011;11556;51.194;3.800;2022-10-30T04:45:21;27.92;;;12.55;;
22778;SDS011;11556;51.194;3.800;2022-10-30T04:47:47;25.60;;;12.95;;
22778;SDS011;11556;51.194;3.800;2022-10-30T04:50:13;31.35;;;13.38;;
22778;SDS011;11556;51.194;3.800;2022-10-30T04:52:39;40.63;;;16.50;;
22778;SDS011;11556;51.194;3.800;2022-10-30T04:55:05;47.38;;;16.77;;
22778;SDS011;11556;51.194;3.800;2022-10-30T04:57:32;49.80;;;19.00;;
22778;SDS011;11556;51.194;3.800;2022-10-30T04:59:58;53.92;;;21.50;;
22778;SDS011;11556;51.194;3.800;2022-10-30T05:02:24;65.50;;;23.60;;
22778;SDS011;11556;51.194;3.800;2022-10-30T05:04:50;69.65;;;25.40;;
22778;SDS011;11556;51.194;3.800;2022-10-30T05:07:15;75.15;;;25.17;;
22778;SDS011;11556;51.194;3.800;2022-10-30T05:09:42;66.93;;;24.42;;
22778;SDS011;11556;51.194;3.800;2022-10-30T05:12:08;68.35;;;23.38;;
22778;SDS011;11556;51.194;3.800;2022-10-30T05:14:34;72.32;;;24.35;;
22778;SDS011;11556;51.194;3.800;2022-10-30T05:17:00;61.65;;;23.92;;
22778;SDS011;11556;51.194;3.800;2022-10-30T05:19:25;56.20;;;21.17;;
22778;SDS011;11556;51.194;3.800;2022-10-30T05:21:51;49.42;;;20.20;;
22778;SDS011;11556;51.194;3.800;2022-10-30T05:24:16;46.65;;;18.52;;
22778;SDS011;11556;51.194;3.800;2022-10-30T05:26:42;43.42;;;17.92;;
22778;SDS011;11556;51.194;3.800;2022-10-30T05:29:08;40.70;;;17.25;;
22778;SDS011;11556;51.194;3.800;2022-10-30T05:31:34;35.17;;;15.55;;
22778;SDS011;11556;51.194;3.800;2022-10-30T05:34:00;33.25;;;14.23;;
22778;SDS011;11556;51.194;3.800;2022-10-30T05:36:25;32.38;;;13.80;;
22778;SDS011;11556;51.194;3.800;2022-10-30T05:38:51;27.10;;;12.80;;
22778;SDS011;11556;51.194;3.800;2022-10-30T05:41:16;24.33;;;12.68;;
22778;SDS011;11556;51.194;3.800;2022-10-30T05:43:42;24.52;;;12.50;;
22778;SDS011;11556;51.194;3.800;2022-10-30T05:46:08;39.17;;;15.23;;
22778;SDS011;11556;51.194;3.800;2022-10-30T05:48:33;37.65;;;15.40;;
22778;SDS011;11556;51.194;3.800;2022-10-30T05:50:59;39.70;;;14.77;;
22778;SDS011;11556;51.194;3.800;2022-10-30T05:53:24;32.13;;;14.40;;
22778;SDS011;11556;51.194;3.800;2022-10-30T05:55:50;33.35;;;14.50;;
22778;SDS011;11556;51.194;3.800;2022-10-30T05:58:19;28.02;;;14.48;;
22778;SDS011;11556;51.194;3.800;2022-10-30T06:00:45;37.38;;;15.35;;
22778;SDS011;11556;51.194;3.800;2022-10-30T06:03:10;34.25;;;14.32;;
22778;SDS011;11556;51.194;3.800;2022-10-30T06:05:37;36.83;;;16.17;;
22778;SDS011;11556;51.194;3.800;2022-10-30T06:08:03;31.42;;;14.90;;
22778;SDS011;11556;51.194;3.800;2022-10-30T06:10:30;39.15;;;14.82;;
22778;SDS011;11556;51.194;3.800;2022-10-30T06:12:57;31.60;;;13.93;;
22778;SDS011;11556;51.194;3.800;2022-10-30T06:15:25;27.63;;;13.00;;
22778;SDS011;11556;51.194;3.800;2022-10-30T06:17:51;42.72;;;16.67;;
22778;SDS011;11556;51.194;3.800;2022-10-30T06:20:17;55.05;;;20.13;;
22778;SDS011;11556;51.194;3.800;2022-10-30T06:25:21;53.28;;;20.33;;
22778;SDS011;11556;51.194;3.800;2022-10-30T06:27:47;45.67;;;17.15;;
22778;SDS011;11556;51.194;3.800;2022-10-30T06:30:13;40.95;;;17.73;;
22778;SDS011;11556;51.194;3.800;2022-10-30T06:32:39;39.25;;;17.33;;
22778;SDS011;11556;51.194;3.800;2022-10-30T06:35:04;43.70;;;18.13;;
22778;SDS011;11556;51.194;3.800;2022-10-30T06:37:30;39.58;;;17.92;;
22778;SDS011;11556;51.194;3.800;2022-10-30T06:39:55;41.33;;;17.83;;
22778;SDS011;11556;51.194;3.800;2022-10-30T06:42:22;43.35;;;17.70;;
22778;SDS011;11556;51.194;3.800;2022-10-30T06:44:48;46.72;;;18.50;;
22778;SDS011;11556;51.194;3.800;2022-10-30T06:47:14;44.97;;;17.90;;
22778;SDS011;11556;51.194;3.800;2022-10-30T06:49:39;48.63;;;18.42;;
22778;SDS011;11556;51.194;3.800;2022-10-30T06:52:05;50.00;;;18.60;;
22778;SDS011;11556;51.194;3.800;2022-10-30T06:54:31;45.70;;;19.35;;
22778;SDS011;11556;51.194;3.800;2022-10-30T06:56:56;53.72;;;19.35;;
22778;SDS011;11556;51.194;3.800;2022-10-30T06:59:22;51.40;;;20.10;;
22778;SDS011;11556;51.194;3.800;2022-10-30T07:01:48;51.92;;;20.58;;
22778;SDS011;11556;51.194;3.800;2022-10-30T07:04:13;69.43;;;24.20;;
22778;SDS011;11556;51.194;3.800;2022-10-30T07:06:39;55.25;;;20.45;;
22778;SDS011;11556;51.194;3.800;2022-10-30T07:09:04;46.60;;;18.55;;
22778;SDS011;11556;51.194;3.800;2022-10-30T07:11:30;57.33;;;18.90;;
22778;SDS011;11556;51.194;3.800;2022-10-30T07:13:56;48.40;;;17.90;;
22778;SDS011;11556;51.194;3.800;2022-10-30T07:16:21;44.67;;;17.25;;
22778;SDS011;11556;51.194;3.800;2022-10-30T07:18:47;43.88;;;17.42;;
22778;SDS011;11556;51.194;3.800;2022-10-30T07:21:12;45.63;;;17.60;;
22778;SDS011;11556;51.194;3.800;2022-10-30T07:23:38;39.58;;;16.40;;
22778;SDS011;11556;51.194;3.800;2022-10-30T07:26:03;43.17;;;16.13;;
22778;SDS011;11556;51.194;3.800;2022-10-30T07:28:29;46.65;;;14.38;;
22778;SDS011;11556;51.194;3.800;2022-10-30T07:30:56;40.55;;;12.57;;
22778;SDS011;11556;51.194;3.800;2022-10-30T07:33:22;52.40;;;12.43;;
22778;SDS011;11556;51.194;3.800;2022-10-30T07:35:48;42.65;;;11.45;;
22778;SDS011;11556;51.194;3.800;2022-10-30T07:38:13;46.97;;;11.98;;
22778;SDS011;11556;51.194;3.800;2022-10-30T07:40:41;49.72;;;11.77;;
22778;SDS011;11556;51.194;3.800;2022-10-30T07:43:07;36.47;;;10.85;;
22778;SDS011;11556;51.194;3.800;2022-10-30T07:45:37;34.92;;;10.68;;
22778;SDS011;11556;51.194;3.800;2022-10-30T07:48:03;43.63;;;11.00;;
22778;SDS011;11556;51.194;3.800;2022-10-30T07:50:29;32.47;;;9.88;;
22778;SDS011;11556;51.194;3.800;2022-10-30T07:52:55;33.22;;;9.85;;
22778;SDS011;11556;51.194;3.800;2022-10-30T07:55:20;32.60;;;10.05;;
22778;SDS011;11556;51.194;3.800;2022-10-30T07:57:46;39.47;;;10.70;;
22778;SDS011;11556;51.194;3.800;2022-10-30T08:00:13;43.63;;;11.68;;
22778;SDS011;11556;51.194;3.800;2022-10-30T08:02:39;43.78;;;11.18;;
22778;SDS011;11556;51.194;3.800;2022-10-30T08:05:05;42.92;;;11.68;;
22778;SDS011;11556;51.194;3.800;2022-10-30T08:07:31;31.23;;;12.32;;
22778;SDS011;11556;51.194;3.800;2022-10-30T08:09:59;35.13;;;11.90;;
22778;SDS011;11556;51.194;3.800;2022-10-30T08:12:25;34.35;;;12.07;;
22778;SDS011;11556;51.194;3.800;2022-10-30T08:14:51;37.30;;;11.80;;
22778;SDS011;11556;51.194;3.800;2022-10-30T08:17:17;35.33;;;10.95;;
22778;SDS011;11556;51.194;3.800;2022-10-30T08:19:42;37.92;;;11.27;;
22778;SDS011;11556;51.194;3.800;2022-10-30T08:22:09;43.90;;;11.40;;
22778;SDS011;11556;51.194;3.800;2022-10-30T08:24:35;42.92;;;11.63;;
22778;SDS011;11556;51.194;3.800;2022-10-30T08:27:01;48.70;;;12.00;;
22778;SDS011;11556;51.194;3.800;2022-10-30T08:29:27;58.78;;;12.55;;
22778;SDS011;11556;51.194;3.800;2022-10-30T08:31:52;44.90;;;13.20;;
22778;SDS011;11556;51.194;3.800;2022-10-30T08:34:18;54.88;;;12.20;;
22778;SDS011;11556;51.194;3.800;2022-10-30T08:36:46;49.05;;;11.45;;
22778;SDS011;11556;51.194;3.800;2022-10-30T08:39:13;52.00;;;11.43;;
22778;SDS011;11556;51.194;3.800;2022-10-30T08:41:39;42.97;;;10.80;;
22778;SDS011;11556;51.194;3.800;2022-10-30T08:44:04;56.92;;;11.45;;
22778;SDS011;11556;51.194;3.800;2022-10-30T08:46:30;45.40;;;10.77;;
22778;SDS011;11556;51.194;3.800;2022-10-30T08:48:56;30.35;;;8.85;;
22778;SDS011;11556;51.194;3.800;2022-10-30T08:51:21;43.95;;;9.90;;
22778;SDS011;11556;51.194;3.800;2022-10-30T08:53:47;35.78;;;10.68;;
22778;SDS011;11556;51.194;3.800;2022-10-30T08:56:16;29.50;;;12.32;;
22778;SDS011;11556;51.194;3.800;2022-10-30T08:58:42;30.42;;;10.60;;
22778;SDS011;11556;51.194;3.800;2022-10-30T09:01:07;34.75;;;10.90;;
22778;SDS011;11556;51.194;3.800;2022-10-30T09:03:33;32.70;;;10.70;;
22778;SDS011;11556;51.194;3.800;2022-10-30T09:05:59;28.92;;;8.68;;
22778;SDS011;11556;51.194;3.800;2022-10-30T09:08:25;27.17;;;7.68;;
22778;SDS011;11556;51.194;3.800;2022-10-30T09:10:57;15.70;;;7.45;;
22778;SDS011;11556;51.194;3.800;2022-10-30T09:15:49;16.40;;;7.35;;
22778;SDS011;11556;51.194;3.800;2022-10-30T09:18:15;16.42;;;7.47;;
22778;SDS011;11556;51.194;3.800;2022-10-30T09:20:41;17.63;;;7.00;;
22778;SDS011;11556;51.194;3.800;2022-10-30T09:23:06;17.83;;;7.57;;
22778;SDS011;11556;51.194;3.800;2022-10-30T09:25:32;17.20;;;7.28;;
22778;SDS011;11556;51.194;3.800;2022-10-30T09:27:58;21.27;;;7.05;;
22778;SDS011;11556;51.194;3.800;2022-10-30T09:30:23;16.85;;;6.47;;
22778;SDS011;11556;51.194;3.800;2022-10-30T09:32:53;13.48;;;6.38;;
22778;SDS011;11556;51.194;3.800;2022-10-30T09:35:23;16.25;;;6.72;;
22778;SDS011;11556;51.194;3.800;2022-10-30T09:37:49;14.65;;;6.07;;
22778;SDS011;11556;51.194;3.800;2022-10-30T09:43:22;16.20;;;6.32;;
22778;SDS011;11556;51.194;3.800;2022-10-30T09:51:42;17.05;;;6.22;;
22778;SDS011;11556;51.194;3.800;2022-10-30T09:57:06;11.75;;;6.00;;
22778;SDS011;11556;51.194;3.800;2022-10-30T10:00:02;14.98;;;5.85;;
22778;SDS011;11556;51.194;3.800;2022-10-30T10:02:35;17.13;;;5.38;;
22778;SDS011;11556;51.194;3.800;2022-10-30T10:07:38;12.50;;;5.47;;
22778;SDS011;11556;51.194;3.800;2022-10-30T10:10:24;19.00;;;6.30;;
22778;SDS011;11556;51.194;3.800;2022-10-30T10:13:02;15.65;;;5.70;;
22778;SDS011;11556;51.194;3.800;2022-10-30T10:18:13;15.10;;;5.80;;
22778;SDS011;11556;51.194;3.800;2022-10-30T10:20:45;18.15;;;6.00;;
22778;SDS011;11556;51.194;3.800;2022-10-30T10:23:16;12.13;;;5.93;;
22778;SDS011;11556;51.194;3.800;2022-10-30T10:25:44;12.18;;;5.53;;
22778;SDS011;11556;51.194;3.800;2022-10-30T10:28:37;17.40;;;5.95;;
22778;SDS011;11556;51.194;3.800;2022-10-30T10:31:26;13.82;;;5.95;;
22778;SDS011;11556;51.194;3.800;2022-10-30T10:50:45;17.38;;;6.75;;
22778;SDS011;11556;51.194;3.800;2022-10-30T10:53:26;16.02;;;6.65;;
22778;SDS011;11556;51.194;3.800;2022-10-30T10:56:12;19.88;;;7.45;;
22778;SDS011;11556;51.194;3.800;2022-10-30T10:58:40;19.10;;;6.53;;
22778;SDS011;11556;51.194;3.800;2022-10-30T11:01:21;19.90;;;7.32;;
22778;SDS011;11556;51.194;3.800;2022-10-30T11:04:04;23.85;;;7.25;;
22778;SDS011;11556;51.194;3.800;2022-10-30T11:09:20;21.60;;;7.40;;
22778;SDS011;11556;51.194;3.800;2022-10-30T11:11:48;26.42;;;8.32;;
22778;SDS011;11556;51.194;3.800;2022-10-30T11:19:48;16.65;;;6.65;;
22778;SDS011;11556;51.194;3.800;2022-10-30T11:22:26;16.77;;;6.95;;
22778;SDS011;11556;51.194;3.800;2022-10-30T11:25:00;22.80;;;6.50;;
22778;SDS011;11556;51.194;3.800;2022-10-30T11:27:47;22.88;;;6.72;;
22778;SDS011;11556;51.194;3.800;2022-10-30T11:30:24;15.13;;;7.50;;
22778;SDS011;11556;51.194;3.800;2022-10-30T11:32:52;15.73;;;7.35;;
22778;SDS011;11556;51.194;3.800;2022-10-30T11:35:19;16.73;;;6.88;;
22778;SDS011;11556;51.194;3.800;2022-10-30T11:37:48;13.88;;;6.82;;
22778;SDS011;11556;51.194;3.800;2022-10-30T11:40:19;15.20;;;6.80;;
22778;SDS011;11556;51.194;3.800;2022-10-30T11:42:56;14.70;;;6.82;;
22778;SDS011;11556;51.194;3.800;2022-10-30T11:45:28;16.23;;;7.40;;
22778;SDS011;11556;51.194;3.800;2022-10-30T11:47:56;12.25;;;6.85;;
22778;SDS011;11556;51.194;3.800;2022-10-30T11:50:27;18.23;;;6.45;;
22778;SDS011;11556;51.194;3.800;2022-10-30T11:52:56;14.77;;;6.85;;
22778;SDS011;11556;51.194;3.800;2022-10-30T11:55:28;14.57;;;6.88;;
22778;SDS011;11556;51.194;3.800;2022-10-30T11:57:59;17.27;;;7.38;;
22778;SDS011;11556;51.194;3.800;2022-10-30T12:00:35;15.32;;;6.28;;
22778;SDS011;11556;51.194;3.800;2022-10-30T12:03:02;16.67;;;6.63;;
22778;SDS011;11556;51.194;3.800;2022-10-30T12:05:29;15.07;;;7.13;;
22778;SDS011;11556;51.194;3.800;2022-10-30T12:10:32;18.73;;;6.95;;
22778;SDS011;11556;51.194;3.800;2022-10-30T12:13:04;13.70;;;6.70;;
22778;SDS011;11556;51.194;3.800;2022-10-30T12:15:36;15.93;;;6.88;;
22778;SDS011;11556;51.194;3.800;2022-10-30T12:18:04;14.75;;;6.70;;
22778;SDS011;11556;51.194;3.800;2022-10-30T12:20:32;15.90;;;6.18;;
22778;SDS011;11556;51.194;3.800;2022-10-30T12:23:15;18.33;;;6.88;;
22778;SDS011;11556;51.194;3.800;2022-10-30T12:25:48;14.77;;;6.00;;
22778;SDS011;11556;51.194;3.800;2022-10-30T12:28:20;12.00;;;6.57;;
22778;SDS011;11556;51.194;3.800;2022-10-30T12:30:57;12.30;;;5.90;;
22778;SDS011;11556;51.194;3.800;2022-10-30T12:36:32;16.08;;;5.75;;
22778;SDS011;11556;51.194;3.800;2022-10-30T12:39:29;11.15;;;5.50;;
22778;SDS011;11556;51.194;3.800;2022-10-30T12:42:17;11.98;;;5.78;;
22778;SDS011;11556;51.194;3.800;2022-10-30T12:50:28;12.10;;;5.55;;
22778;SDS011;11556;51.194;3.800;2022-10-30T12:53:19;15.48;;;6.05;;
22778;SDS011;11556;51.194;3.800;2022-10-30T12:56:01;13.48;;;5.40;;
22778;SDS011;11556;51.194;3.800;2022-10-30T12:58:39;10.75;;;5.47;;
22778;SDS011;11556;51.194;3.800;2022-10-30T13:06:34;12.50;;;6.35;;
22778;SDS011;11556;51.194;3.800;2022-10-30T13:11:57;17.60;;;7.45;;
22778;SDS011;11556;51.194;3.800;2022-10-30T13:14:30;15.90;;;7.40;;
22778;SDS011;11556;51.194;3.800;2022-10-30T13:17:14;15.50;;;6.50;;
22778;SDS011;11556;51.194;3.800;2022-10-30T13:19:42;11.60;;;5.18;;
22778;SDS011;11556;51.194;3.800;2022-10-30T13:25:30;13.63;;;4.65;;
22778;SDS011;11556;51.194;3.800;2022-10-30T13:30:17;10.20;;;4.63;;
22778;SDS011;11556;51.194;3.800;2022-10-30T13:46:25;10.40;;;4.25;;
22778;SDS011;11556;51.194;3.800;2022-10-30T13:56:32;8.35;;;2.50;;
22778;SDS011;11556;51.194;3.800;2022-10-30T13:59:11;10.10;;;2.15;;
22778;SDS011;11556;51.194;3.800;2022-10-30T14:25:40;8.65;;;2.80;;
22778;SDS011;11556;51.194;3.800;2022-10-30T14:28:19;11.90;;;3.38;;
22778;SDS011;11556;51.194;3.800;2022-10-30T14:30:45;14.52;;;3.42;;
22778;SDS011;11556;51.194;3.800;2022-10-30T14:36:17;13.00;;;4.03;;
22778;SDS011;11556;51.194;3.800;2022-10-30T14:44:33;14.00;;;4.05;;
22778;SDS011;11556;51.194;3.800;2022-10-30T14:55:24;8.03;;;3.33;;
22778;SDS011;11556;51.194;3.800;2022-10-30T14:58:24;11.80;;;3.23;;
22778;SDS011;11556;51.194;3.800;2022-10-30T15:15:14;10.52;;;3.33;;
22778;SDS011;11556;51.194;3.800;2022-10-30T15:17:45;8.15;;;2.92;;
22778;SDS011;11556;51.194;3.800;2022-10-30T15:20:14;9.52;;;3.13;;
22778;SDS011;11556;51.194;3.800;2022-10-30T15:22:53;9.63;;;2.70;;
22778;SDS011;11556;51.194;3.800;2022-10-30T15:27:49;11.20;;;3.15;;
22778;SDS011;11556;51.194;3.800;2022-10-30T15:30:19;8.43;;;2.97;;
22778;SDS011;11556;51.194;3.800;2022-10-30T15:32:46;10.82;;;3.70;;
22778;SDS011;11556;51.194;3.800;2022-10-30T15:35:16;12.07;;;3.35;;
22778;SDS011;11556;51.194;3.800;2022-10-30T15:40:29;13.18;;;3.50;;
22778;SDS011;11556;51.194;3.800;2022-10-30T15:42:55;11.90;;;3.47;;
22778;SDS011;11556;51.194;3.800;2022-10-30T15:45:31;13.20;;;2.80;;
22778;SDS011;11556;51.194;3.800;2022-10-30T15:50:30;11.65;;;2.83;;
22778;SDS011;11556;51.194;3.800;2022-10-30T15:53:00;13.90;;;3.30;;
22778;SDS011;11556;51.194;3.800;2022-10-30T15:55:28;10.98;;;2.78;;
22778;SDS011;11556;51.194;3.800;2022-10-30T15:57:59;13.75;;;2.83;;
22778;SDS011;11556;51.194;3.800;2022-10-30T16:00:32;12.93;;;3.50;;
22778;SDS011;11556;51.194;3.800;2022-10-30T16:05:40;10.63;;;4.63;;
22778;SDS011;11556;51.194;3.800;2022-10-30T16:08:10;15.35;;;4.63;;
22778;SDS011;11556;51.194;3.800;2022-10-30T16:10:40;15.60;;;4.68;;
22778;SDS011;11556;51.194;3.800;2022-10-30T16:16:03;12.27;;;4.30;;
22778;SDS011;11556;51.194;3.800;2022-10-30T16:18:29;12.32;;;3.78;;
22778;SDS011;11556;51.194;3.800;2022-10-30T16:20:59;9.73;;;3.92;;
22778;SDS011;11556;51.194;3.800;2022-10-30T16:23:28;12.33;;;5.13;;
22778;SDS011;11556;51.194;3.800;2022-10-30T16:26:00;11.32;;;5.30;;
22778;SDS011;11556;51.194;3.800;2022-10-30T16:28:30;13.45;;;5.40;;
22778;SDS011;11556;51.194;3.800;2022-10-30T16:31:02;16.45;;;4.88;;
22778;SDS011;11556;51.194;3.800;2022-10-30T16:33:38;15.20;;;4.70;;
22778;SDS011;11556;51.194;3.800;2022-10-30T16:36:05;12.52;;;4.47;;
22778;SDS011;11556;51.194;3.800;2022-10-30T16:38:35;10.85;;;4.22;;
22778;SDS011;11556;51.194;3.800;2022-10-30T16:41:03;7.82;;;3.92;;
22778;SDS011;11556;51.194;3.800;2022-10-30T16:43:31;9.05;;;4.07;;
22778;SDS011;11556;51.194;3.800;2022-10-30T16:48:57;13.68;;;4.15;;
22778;SDS011;11556;51.194;3.800;2022-10-30T16:51:24;11.23;;;3.63;;
22778;SDS011;11556;51.194;3.800;2022-10-30T16:53:50;9.45;;;3.30;;
22778;SDS011;11556;51.194;3.800;2022-10-30T16:56:19;13.60;;;3.08;;
22778;SDS011;11556;51.194;3.800;2022-10-30T16:58:53;10.95;;;3.50;;
22778;SDS011;11556;51.194;3.800;2022-10-30T17:01:23;11.50;;;4.38;;
22778;SDS011;11556;51.194;3.800;2022-10-30T17:03:51;12.63;;;3.97;;
22778;SDS011;11556;51.194;3.800;2022-10-30T17:09:29;12.80;;;4.25;;
22778;SDS011;11556;51.194;3.800;2022-10-30T17:14:43;8.32;;;3.70;;
22778;SDS011;11556;51.194;3.800;2022-10-30T17:17:30;10.23;;;3.97;;
22778;SDS011;11556;51.194;3.800;2022-10-30T17:20:00;10.90;;;4.65;;
22778;SDS011;11556;51.194;3.800;2022-10-30T17:22:30;16.85;;;5.03;;
22778;SDS011;11556;51.194;3.800;2022-10-30T17:24:57;9.30;;;4.80;;
22778;SDS011;11556;51.194;3.800;2022-10-30T17:32:56;12.52;;;5.60;;
22778;SDS011;11556;51.194;3.800;2022-10-30T17:35:22;13.43;;;5.07;;
22778;SDS011;11556;51.194;3.800;2022-10-30T17:37:49;16.02;;;5.10;;
22778;SDS011;11556;51.194;3.800;2022-10-30T17:40:15;9.05;;;4.30;;
22778;SDS011;11556;51.194;3.800;2022-10-30T17:42:43;12.10;;;4.10;;
22778;SDS011;11556;51.194;3.800;2022-10-30T17:45:11;14.07;;;5.07;;
22778;SDS011;11556;51.194;3.800;2022-10-30T17:47:37;13.00;;;4.70;;
22778;SDS011;11556;51.194;3.800;2022-10-30T17:50:03;11.57;;;4.30;;
22778;SDS011;11556;51.194;3.800;2022-10-30T17:52:30;12.65;;;4.40;;
22778;SDS011;11556;51.194;3.800;2022-10-30T17:54:56;10.35;;;4.28;;
22778;SDS011;11556;51.194;3.800;2022-10-30T17:57:22;15.57;;;6.07;;